KVIH/VIH METAR and TAF weather

Enter ICAO airport designator
Station Type Date Time Source
KVIH METAR 2019/10/21 01:53 UTC NOAA

KVIH 210153Z AUTO 12010KT 10SM CLR 15/12 A2977 RMK AO2 SLP078 T01500117


Station Type Date Time Source
KVIH Decoded METAR 2019/10/21 01:53 UTC NOAA

ROLLA/VICHY ROLLA NATIONAL, MO, United States (KVIH) 38-08N 91-46W 333M
Oct 20, 2019 - 09:53 PM EDT / 2019.10.21 0153 UTC
Wind: from the ESE (120 degrees) at 12 MPH (10 KT):0
Visibility: 10 mile(s):0
Sky conditions: clear
Temperature: 59.0 F (15.0 C)
Dew Point: 53.1 F (11.7 C)
Relative Humidity: 80%
Pressure (altimeter): 29.77 in. Hg (1008 hPa)
ob: KVIH 210153Z AUTO 12010KT 10SM CLR 15/12 A2977 RMK AO2 SLP078 T01500117
cycle: 2

Station Type Date Time Source
KVIH TAF UTC NOAA

Error!

Example: see airport list